Time;durP1;ratioP1;P1;durP2;ratioP2;P2;SDS_P1;SDS_P2;PMS_P1;PMS_P2;Temp;Humidity;BMP_temperature;BMP_pressure;BME280_temperature;BME280_humidity;BME280_pressure;Samples;Min_cycle;Max_cycle;Signal;HPM_P1;HPM_P2
2021/12/06 00:01:44;;;;;;;95.72;40.70;;;2.60;99.90;;;;;;5110827;28;20047;-42
2021/12/06 00:04:13;;;;;;;98.57;39.08;;;2.60;99.90;;;;;;5112220;28;20030;-41
2021/12/06 00:06:41;;;;;;;94.80;41.00;;;2.60;99.90;;;;;;5105488;28;20011;-41
2021/12/06 00:09:09;;;;;;;83.30;37.30;;;2.60;99.90;;;;;;5101511;28;20090;-42
2021/12/06 00:11:35;;;;;;;89.65;38.03;;;2.60;99.90;;;;;;5111994;28;20461;-41
2021/12/06 00:14:02;;;;;;;102.32;39.70;;;2.70;99.90;;;;;;5111972;28;20023;-42
2021/12/06 00:16:28;;;;;;;94.70;37.88;;;2.60;99.90;;;;;;5111923;28;20031;-41
2021/12/06 00:18:54;;;;;;;90.35;38.63;;;2.60;99.90;;;;;;5111158;28;20209;-41
2021/12/06 00:21:22;;;;;;;93.45;37.83;;;2.60;99.90;;;;;;5111506;28;20028;-41
2021/12/06 00:23:49;;;;;;;86.32;36.58;;;2.60;99.90;;;;;;5111741;28;20024;-41
2021/12/06 00:26:15;;;;;;;81.97;35.30;;;2.60;99.90;;;;;;5111747;28;20138;-41
2021/12/06 00:28:43;;;;;;;81.70;34.45;;;2.60;99.90;;;;;;5110188;28;20477;-41
2021/12/06 00:31:09;;;;;;;79.50;34.17;;;2.60;99.90;;;;;;5111766;28;20473;-41
2021/12/06 00:33:35;;;;;;;75.75;32.55;;;2.60;99.90;;;;;;5110273;28;20035;-42
2021/12/06 00:36:06;;;;;;;73.15;30.67;;;2.60;99.90;;;;;;5105830;28;20029;-42
2021/12/06 00:38:34;;;;;;;78.47;31.45;;;2.60;99.90;;;;;;5102529;28;20094;-42
2021/12/06 00:41:00;;;;;;;76.93;33.22;;;2.60;99.90;;;;;;5111504;28;20609;-42
2021/12/06 00:43:26;;;;;;;68.97;31.05;;;2.50;99.90;;;;;;5111358;28;20704;-41
2021/12/06 00:45:51;;;;;;;72.15;31.80;;;2.60;99.90;;;;;;5111230;28;20031;-42
2021/12/06 00:48:17;;;;;;;69.78;29.83;;;2.70;99.90;;;;;;5110644;28;20029;-42
2021/12/06 00:50:44;;;;;;;67.38;28.92;;;2.70;99.90;;;;;;5111005;28;20076;-42
2021/12/06 00:53:11;;;;;;;60.60;27.02;;;2.60;99.90;;;;;;5111442;28;20032;-42
2021/12/06 00:55:37;;;;;;;74.50;31.65;;;2.60;99.90;;;;;;5111155;28;20552;-41
2021/12/06 00:58:04;;;;;;;72.93;30.77;;;2.60;99.90;;;;;;5110573;28;20096;-42
2021/12/06 01:00:42;;;;;;;64.43;29.88;;;2.60;99.90;;;;;;5110931;28;20028;-41
2021/12/06 01:03:12;;;;;;;77.38;34.38;;;2.60;99.90;;;;;;5110904;28;20376;-44
2021/12/06 01:05:37;;;;;;;69.78;29.10;;;2.70;99.90;;;;;;5107465;28;20032;-41
2021/12/06 01:08:03;;;;;;;66.75;29.42;;;2.60;99.90;;;;;;5099780;28;20012;-43
2021/12/06 01:10:30;;;;;;;72.65;32.80;;;2.70;99.90;;;;;;5109645;28;20053;-42
2021/12/06 01:12:57;;;;;;;67.80;31.13;;;2.70;99.90;;;;;;5111089;28;20042;-41
2021/12/06 01:15:23;;;;;;;73.15;31.13;;;2.70;99.90;;;;;;5110867;28;20465;-42
2021/12/06 01:17:49;;;;;;;86.30;34.90;;;2.70;99.90;;;;;;5109936;28;20080;-42
2021/12/06 01:20:19;;;;;;;73.47;30.88;;;2.60;99.90;;;;;;5110443;28;20028;-41
2021/12/06 01:22:52;;;;;;;87.78;32.92;;;2.60;99.90;;;;;;5110187;28;20478;-42
2021/12/06 01:25:29;;;;;;;93.65;35.00;;;2.60;99.90;;;;;;5110451;28;20038;-42
2021/12/06 01:33:27;;;;;;;84.07;32.45;;;2.50;99.90;;;;;;5110860;28;20072;-42
2021/12/06 01:41:19;;;;;;;74.78;30.70;;;2.50;99.90;;;;;;5089959;28;20090;-42
2021/12/06 01:44:05;;;;;;;80.35;32.83;;;2.50;99.90;;;;;;5090203;28;20020;-42
2021/12/06 01:46:32;;;;;;;82.93;32.28;;;2.50;99.90;;;;;;5089956;28;20028;-42
2021/12/06 01:48:58;;;;;;;79.25;32.33;;;2.50;99.90;;;;;;5089436;28;20123;-42
2021/12/06 01:51:25;;;;;;;84.03;33.38;;;2.50;99.90;;;;;;5088625;28;20470;-42
2021/12/06 01:53:50;;;;;;;85.50;31.55;;;2.50;99.90;;;;;;5090152;28;20032;-42
2021/12/06 01:56:16;;;;;;;80.85;33.42;;;2.60;99.90;;;;;;5090069;28;20526;-42
2021/12/06 01:58:43;;;;;;;76.00;32.05;;;2.50;99.90;;;;;;5089489;28;20024;-42
2021/12/06 02:01:09;;;;;;;78.03;31.52;;;2.50;99.90;;;;;;5089947;28;20024;-41
2021/12/06 02:03:36;;;;;;;82.63;31.30;;;2.50;99.90;;;;;;5089981;28;20069;-42
2021/12/06 02:06:02;;;;;;;71.85;32.03;;;2.50;99.90;;;;;;5084971;28;20466;-42
2021/12/06 02:08:27;;;;;;;72.35;29.27;;;2.50;99.90;;;;;;5097803;28;20062;-42
2021/12/06 02:10:59;;;;;;;71.43;30.48;;;2.50;99.90;;;;;;5106548;28;20078;-43
2021/12/06 02:13:29;;;;;;;70.50;30.40;;;2.50;99.90;;;;;;5090625;28;20036;-42
2021/12/06 02:15:55;;;;;;;79.38;31.73;;;2.60;99.90;;;;;;5088477;28;20107;-41
2021/12/06 02:21:04;;;;;;;76.40;30.17;;;2.60;99.90;;;;;;5090058;28;20050;-43
2021/12/06 02:23:30;;;;;;;64.95;28.15;;;2.60;99.90;;;;;;5089769;28;20422;-42
2021/12/06 02:25:56;;;;;;;79.65;31.52;;;2.60;99.90;;;;;;5089354;28;20020;-42
2021/12/06 02:28:21;;;;;;;72.43;29.33;;;2.50;99.90;;;;;;5087805;28;20012;-43
2021/12/06 02:30:47;;;;;;;68.40;30.00;;;2.60;99.90;;;;;;5089754;28;20039;-43
2021/12/06 02:33:13;;;;;;;69.95;29.85;;;2.60;99.90;;;;;;5089849;28;20043;-44
2021/12/06 02:35:38;;;;;;;73.72;31.23;;;2.50;99.90;;;;;;5089726;28;20024;-43
2021/12/06 02:38:07;;;;;;;74.40;29.98;;;2.50;99.90;;;;;;5095731;28;20042;-43
2021/12/06 02:40:34;;;;;;;74.78;32.25;;;2.50;99.90;;;;;;5104056;28;20042;-43
2021/12/06 02:43:03;;;;;;;74.55;32.53;;;2.50;99.90;;;;;;5109971;28;20087;-42
2021/12/06 02:45:30;;;;;;;73.88;31.15;;;2.50;99.90;;;;;;5107307;28;20023;-43
2021/12/06 02:47:58;;;;;;;64.18;29.90;;;2.50;99.90;;;;;;5088469;28;20021;-42
2021/12/06 02:50:28;;;;;;;66.13;30.88;;;2.40;99.90;;;;;;5088117;28;20024;-42
2021/12/06 02:52:55;;;;;;;61.95;29.98;;;2.40;99.90;;;;;;5090223;28;20031;-42
2021/12/06 02:55:43;;;;;;;57.03;28.58;;;2.40;99.90;;;;;;5089804;28;20101;-42
2021/12/06 02:58:21;;;;;;;55.30;29.10;;;2.40;99.90;;;;;;5092326;28;20048;-43
2021/12/06 03:00:55;;;;;;;63.55;31.08;;;2.40;99.90;;;;;;5092372;28;20028;-42
2021/12/06 03:03:21;;;;;;;62.75;32.58;;;2.40;99.90;;;;;;5092600;28;20082;-42
2021/12/06 03:05:50;;;;;;;61.20;30.27;;;2.30;99.90;;;;;;5092780;28;20024;-42
2021/12/06 03:08:33;;;;;;;63.00;30.52;;;2.30;99.90;;;;;;5090456;28;20018;-42
2021/12/06 03:10:59;;;;;;;68.22;33.20;;;2.30;99.90;;;;;;5092972;28;20024;-42
2021/12/06 03:13:25;;;;;;;63.00;31.23;;;2.20;99.90;;;;;;5092453;28;20024;-41
2021/12/06 03:15:50;;;;;;;67.07;32.60;;;2.20;99.90;;;;;;5094959;28;20024;-42
2021/12/06 03:18:16;;;;;;;61.05;30.52;;;2.20;99.90;;;;;;5097728;28;20089;-42
2021/12/06 03:20:41;;;;;;;70.07;30.13;;;2.20;99.90;;;;;;5091975;28;20032;-43
2021/12/06 03:23:07;;;;;;;62.50;31.40;;;2.20;99.90;;;;;;5092068;28;20440;-42
2021/12/06 03:25:32;;;;;;;60.83;30.35;;;2.20;99.90;;;;;;5092314;28;20031;-42
2021/12/06 03:28:00;;;;;;;66.57;30.80;;;2.20;99.90;;;;;;5091668;28;20047;-42
2021/12/06 03:30:26;;;;;;;62.50;31.77;;;2.20;99.90;;;;;;5092533;28;20060;-43
2021/12/06 03:32:52;;;;;;;62.35;31.42;;;2.20;99.90;;;;;;5092331;28;20452;-43
2021/12/06 03:35:17;;;;;;;64.07;32.38;;;2.20;99.90;;;;;;5092528;28;20101;-43
2021/12/06 03:37:43;;;;;;;65.20;30.75;;;2.20;99.90;;;;;;5098747;28;20572;-45
2021/12/06 03:40:09;;;;;;;63.13;29.83;;;2.20;99.90;;;;;;5102864;28;20106;-43
2021/12/06 03:42:35;;;;;;;65.07;31.35;;;2.20;99.90;;;;;;5111305;28;20024;-43
2021/12/06 03:45:01;;;;;;;65.65;30.92;;;2.20;99.90;;;;;;5091773;28;20027;-46
2021/12/06 03:47:31;;;;;;;66.90;33.55;;;2.20;99.90;;;;;;5091095;28;20047;-43
2021/12/06 03:49:57;;;;;;;63.08;30.88;;;2.20;99.90;;;;;;5090390;28;20378;-42
2021/12/06 03:52:23;;;;;;;63.40;32.42;;;2.20;99.90;;;;;;5091619;28;20032;-42
2021/12/06 03:54:50;;;;;;;66.85;32.03;;;2.30;99.90;;;;;;5091740;28;20341;-42
2021/12/06 03:57:16;;;;;;;66.90;30.60;;;2.20;99.90;;;;;;5089728;28;20020;-46
2021/12/06 03:59:42;;;;;;;69.55;33.00;;;2.20;99.90;;;;;;5091486;28;20020;-42
2021/12/06 04:02:08;;;;;;;73.68;33.53;;;2.20;99.90;;;;;;5091298;28;20054;-43
2021/12/06 04:04:37;;;;;;;73.20;34.35;;;2.20;99.90;;;;;;5091551;28;20099;-42
2021/12/06 04:07:04;;;;;;;68.95;34.17;;;2.20;99.90;;;;;;5091567;28;20027;-41
2021/12/06 04:09:30;;;;;;;77.18;34.38;;;2.20;99.90;;;;;;5091686;28;20035;-42
2021/12/06 04:11:55;;;;;;;72.78;33.85;;;2.20;99.90;;;;;;5091683;28;20020;-42
2021/12/06 04:14:21;;;;;;;72.45;34.40;;;2.20;99.90;;;;;;5073544;28;20059;-42
2021/12/06 04:16:47;;;;;;;75.53;34.55;;;2.20;99.90;;;;;;5091333;28;20026;-42
2021/12/06 04:19:13;;;;;;;73.47;36.28;;;2.20;99.90;;;;;;5090815;28;20031;-41
2021/12/06 04:21:40;;;;;;;67.95;32.95;;;2.20;99.90;;;;;;5091321;28;20651;-42
2021/12/06 04:24:06;;;;;;;72.72;34.95;;;2.20;99.90;;;;;;5091431;28;20418;-42
2021/12/06 04:26:32;;;;;;;73.43;34.40;;;2.20;99.90;;;;;;5091400;28;20024;-42
2021/12/06 04:28:59;;;;;;;72.40;33.30;;;2.20;99.90;;;;;;5089563;28;20154;-43
2021/12/06 04:31:32;;;;;;;78.38;34.80;;;2.20;99.90;;;;;;5090051;28;20553;-43
2021/12/06 04:33:58;;;;;;;73.03;34.38;;;2.20;99.90;;;;;;5089946;28;20425;-42
2021/12/06 04:36:24;;;;;;;82.32;35.75;;;2.20;99.90;;;;;;5091121;28;20024;-42
2021/12/06 04:38:49;;;;;;;69.63;31.73;;;2.20;99.90;;;;;;5098941;28;20492;-43
2021/12/06 04:41:15;;;;;;;72.38;33.67;;;2.20;99.90;;;;;;5111457;28;20385;-43
2021/12/06 04:43:41;;;;;;;69.43;32.28;;;2.20;99.90;;;;;;5111538;28;20096;-42
2021/12/06 04:46:06;;;;;;;76.97;32.72;;;2.20;99.90;;;;;;5111299;28;20578;-42
2021/12/06 04:48:32;;;;;;;77.63;33.28;;;2.20;99.90;;;;;;5110926;28;20024;-43
2021/12/06 04:50:58;;;;;;;83.43;35.95;;;2.20;99.90;;;;;;5111465;28;20027;-42
2021/12/06 04:53:27;;;;;;;79.00;35.75;;;2.20;99.90;;;;;;5111158;28;20020;-42
2021/12/06 04:55:58;;;;;;;67.85;33.00;;;2.20;99.90;;;;;;5111525;28;20059;-42
2021/12/06 04:58:40;;;;;;;78.65;33.85;;;2.20;99.90;;;;;;5110511;28;20027;-42
2021/12/06 05:01:10;;;;;;;70.68;34.17;;;2.20;99.90;;;;;;5111095;28;20031;-42
2021/12/06 05:03:37;;;;;;;80.72;35.72;;;2.20;99.90;;;;;;5111070;28;20020;-43
2021/12/06 05:06:13;;;;;;;80.38;35.67;;;2.20;99.90;;;;;;5110682;28;20046;-42
2021/12/06 05:08:44;;;;;;;76.40;34.85;;;2.20;99.90;;;;;;5096901;28;20031;-42
2021/12/06 05:11:11;;;;;;;86.10;35.83;;;2.20;99.90;;;;;;5109890;28;20032;-42
2021/12/06 05:13:57;;;;;;;78.68;35.33;;;2.20;99.90;;;;;;5111007;28;20478;-41
2021/12/06 05:16:23;;;;;;;71.22;32.83;;;2.20;99.90;;;;;;5110472;28;20037;-43
2021/12/06 05:18:49;;;;;;;74.30;32.67;;;2.30;99.90;;;;;;5110278;28;20103;-42
2021/12/06 05:21:16;;;;;;;72.47;33.65;;;2.20;99.90;;;;;;5109384;28;20465;-42
2021/12/06 05:23:41;;;;;;;65.15;29.65;;;2.20;99.90;;;;;;5110507;28;20111;-41
2021/12/06 05:26:07;;;;;;;74.40;31.85;;;2.20;99.90;;;;;;5110999;28;20103;-41
2021/12/06 05:28:39;;;;;;;70.40;34.38;;;2.20;99.90;;;;;;5108770;28;20477;-42
2021/12/06 05:31:13;;;;;;;70.85;33.17;;;2.20;99.90;;;;;;5110928;28;20035;-41
2021/12/06 05:33:40;;;;;;;63.72;31.02;;;2.30;99.90;;;;;;5110763;28;20487;-43
2021/12/06 05:36:06;;;;;;;66.80;30.33;;;2.20;99.90;;;;;;5108525;28;20024;-42
2021/12/06 05:38:31;;;;;;;72.70;32.15;;;2.30;99.90;;;;;;5097649;28;20043;-42
2021/12/06 05:40:57;;;;;;;70.35;32.78;;;2.20;99.90;;;;;;5107845;28;20024;-42
2021/12/06 05:43:24;;;;;;;72.93;32.17;;;2.20;99.90;;;;;;5100226;28;20476;-41
2021/12/06 05:45:50;;;;;;;74.80;33.38;;;2.20;99.90;;;;;;5088186;28;20039;-41
2021/12/06 05:48:16;;;;;;;69.82;33.47;;;2.30;99.90;;;;;;5089175;28;20255;-41
2021/12/06 05:50:44;;;;;;;69.25;31.80;;;2.20;99.90;;;;;;5089731;28;20031;-42
2021/12/06 05:53:09;;;;;;;69.38;32.40;;;2.30;99.90;;;;;;5073383;28;20035;-41
2021/12/06 05:55:35;;;;;;;63.60;30.95;;;2.30;99.90;;;;;;5089637;28;20028;-42
2021/12/06 05:58:03;;;;;;;67.88;32.55;;;2.30;99.90;;;;;;5088983;28;20043;-41
2021/12/06 06:00:31;;;;;;;69.10;33.45;;;2.30;99.90;;;;;;5089917;28;20051;-41
2021/12/06 06:02:58;;;;;;;79.93;36.17;;;2.30;99.90;;;;;;5090038;28;20107;-42
2021/12/06 06:05:24;;;;;;;72.40;33.78;;;2.30;99.90;;;;;;5089926;28;20032;-41
2021/12/06 06:07:50;;;;;;;74.25;34.25;;;2.30;99.90;;;;;;5090552;28;20012;-43
2021/12/06 06:10:16;;;;;;;70.55;33.67;;;2.30;99.90;;;;;;5101789;28;20034;-42
2021/12/06 06:12:42;;;;;;;79.25;34.97;;;2.20;99.90;;;;;;5110512;28;20023;-43
2021/12/06 06:15:09;;;;;;;73.35;34.10;;;2.30;99.90;;;;;;5110205;28;20123;-41
2021/12/06 06:17:41;;;;;;;69.40;32.78;;;2.20;99.90;;;;;;5109712;28;20031;-41
2021/12/06 06:20:18;;;;;;;69.93;31.95;;;2.30;99.90;;;;;;5110326;28;20346;-42
2021/12/06 06:22:44;;;;;;;75.70;33.90;;;2.30;99.90;;;;;;5109982;28;20024;-42
2021/12/06 06:25:10;;;;;;;77.05;34.10;;;2.30;99.90;;;;;;5110269;28;20020;-41
2021/12/06 06:27:36;;;;;;;70.68;33.80;;;2.40;99.90;;;;;;5110853;28;20054;-43
2021/12/06 06:30:03;;;;;;;68.93;32.83;;;2.40;99.90;;;;;;5113984;28;20020;-42
2021/12/06 06:32:29;;;;;;;72.53;32.78;;;2.30;99.90;;;;;;5113734;28;20644;-41
2021/12/06 06:34:54;;;;;;;69.65;31.70;;;2.40;99.90;;;;;;5113672;28;20035;-41
2021/12/06 06:37:20;;;;;;;68.07;31.98;;;2.40;99.90;;;;;;5103662;28;20020;-41
2021/12/06 06:39:46;;;;;;;60.55;30.33;;;2.30;99.90;;;;;;5103106;28;20479;-41
2021/12/06 06:42:11;;;;;;;62.67;30.33;;;2.30;99.90;;;;;;5107298;28;20028;-42
2021/12/06 06:44:37;;;;;;;60.85;30.67;;;2.30;99.90;;;;;;5087522;28;20016;-42
2021/12/06 06:47:02;;;;;;;59.17;29.80;;;2.30;99.90;;;;;;5100300;28;20020;-41
2021/12/06 06:49:31;;;;;;;55.25;28.35;;;2.30;99.90;;;;;;5084102;28;20028;-41
2021/12/06 06:51:57;;;;;;;55.63;26.65;;;2.20;99.90;;;;;;5099941;28;20457;-40
2021/12/06 06:54:23;;;;;;;56.70;26.27;;;2.20;99.90;;;;;;5112264;28;20580;-41
2021/12/06 06:56:49;;;;;;;58.10;26.83;;;2.20;99.90;;;;;;5112571;28;20034;-41
2021/12/06 06:59:14;;;;;;;50.63;26.15;;;2.20;99.90;;;;;;5110847;28;20020;-40
2021/12/06 07:01:40;;;;;;;52.22;27.88;;;2.20;99.90;;;;;;5112625;28;20333;-41
2021/12/06 07:04:07;;;;;;;51.88;24.90;;;2.20;99.90;;;;;;5108399;28;20169;-40
2021/12/06 07:06:34;;;;;;;52.42;26.42;;;2.20;99.90;;;;;;5098263;28;20058;-40
2021/12/06 07:09:02;;;;;;;48.35;23.48;;;2.20;99.90;;;;;;5105826;28;20028;-40
2021/12/06 07:11:28;;;;;;;50.05;25.42;;;2.30;99.90;;;;;;5087721;28;20018;-40
2021/12/06 07:13:55;;;;;;;43.42;24.10;;;2.30;99.90;;;;;;5087768;28;20024;-40
2021/12/06 07:16:21;;;;;;;48.33;24.23;;;2.30;99.90;;;;;;5091298;28;20448;-41
2021/12/06 07:18:47;;;;;;;42.85;23.45;;;2.30;99.90;;;;;;5090973;28;20028;-40
2021/12/06 07:21:13;;;;;;;44.13;24.10;;;2.30;99.90;;;;;;5084928;28;20107;-40
2021/12/06 07:23:48;;;;;;;45.33;23.30;;;2.20;99.90;;;;;;5075141;28;20454;-40
2021/12/06 07:26:17;;;;;;;41.50;22.98;;;2.20;99.90;;;;;;5080265;28;20018;-40
2021/12/06 07:28:51;;;;;;;51.90;24.38;;;2.20;99.90;;;;;;5091714;28;20032;-40
2021/12/06 07:31:17;;;;;;;44.65;23.65;;;2.20;99.90;;;;;;5075525;28;20035;-40
2021/12/06 07:33:45;;;;;;;40.25;22.70;;;2.20;99.90;;;;;;5054050;28;20513;-40
2021/12/06 07:36:11;;;;;;;40.88;20.75;;;2.10;99.90;;;;;;5078418;28;20036;-40
2021/12/06 07:38:38;;;;;;;39.00;20.88;;;2.10;99.90;;;;;;5097680;28;20119;-40
2021/12/06 07:41:07;;;;;;;38.97;19.70;;;2.10;99.90;;;;;;5095134;28;20024;-40
2021/12/06 07:43:34;;;;;;;33.92;18.83;;;2.00;99.90;;;;;;5071808;28;20024;-40
2021/12/06 07:46:00;;;;;;;35.42;18.38;;;2.00;99.90;;;;;;5072547;28;20028;-40
2021/12/06 07:48:31;;;;;;;36.58;19.88;;;2.00;99.90;;;;;;5076571;28;20024;-48
2021/12/06 07:50:59;;;;;;;38.08;20.35;;;2.00;99.90;;;;;;5092390;28;20035;-47
2021/12/06 07:53:25;;;;;;;37.75;19.77;;;2.00;99.90;;;;;;5071736;28;20339;-47
2021/12/06 07:55:51;;;;;;;37.65;20.63;;;2.10;99.90;;;;;;5077716;28;20022;-46
2021/12/06 07:58:18;;;;;;;36.47;20.38;;;2.10;99.90;;;;;;5090834;28;20039;-49
2021/12/06 08:00:46;;;;;;;34.72;19.20;;;2.10;99.90;;;;;;5071941;28;20028;-48
2021/12/06 08:03:13;;;;;;;33.17;17.95;;;2.20;99.90;;;;;;5084247;28;20480;-48
2021/12/06 08:05:41;;;;;;;33.50;19.15;;;2.10;99.90;;;;;;5092339;28;20103;-51
2021/12/06 08:08:19;;;;;;;36.22;19.20;;;2.10;99.90;;;;;;5099576;28;20123;-48
2021/12/06 08:10:48;;;;;;;39.65;20.58;;;2.10;99.90;;;;;;5106126;28;20058;-50
2021/12/06 08:13:17;;;;;;;38.35;19.80;;;2.10;99.90;;;;;;5095879;28;20024;-48
2021/12/06 08:15:43;;;;;;;41.70;19.85;;;2.10;99.90;;;;;;5079466;28;20028;-50
2021/12/06 08:18:10;;;;;;;38.95;21.92;;;2.10;99.90;;;;;;5078618;28;20055;-49
2021/12/06 08:20:37;;;;;;;40.13;19.52;;;2.10;99.90;;;;;;5112455;28;20032;-51
2021/12/06 08:23:04;;;;;;;41.40;21.83;;;2.10;99.90;;;;;;5112559;28;20103;-48
2021/12/06 08:25:29;;;;;;;39.30;20.80;;;2.10;99.90;;;;;;5112378;28;20065;-48
2021/12/06 08:27:55;;;;;;;36.50;18.52;;;2.10;99.90;;;;;;5107918;28;20054;-48
2021/12/06 08:30:23;;;;;;;39.03;19.40;;;2.10;99.90;;;;;;5071622;28;20074;-48
2021/12/06 08:32:50;;;;;;;36.70;19.70;;;2.10;99.90;;;;;;5072043;28;20039;-48
2021/12/06 08:35:16;;;;;;;41.03;21.48;;;2.10;99.90;;;;;;5095611;28;20020;-47
2021/12/06 08:37:43;;;;;;;36.17;21.10;;;2.10;99.90;;;;;;5099602;28;20038;-49
2021/12/06 08:40:10;;;;;;;36.80;20.13;;;2.20;99.90;;;;;;5079914;28;20508;-49
2021/12/06 08:42:35;;;;;;;37.10;20.55;;;2.10;99.90;;;;;;5071551;28;20024;-48
2021/12/06 08:45:02;;;;;;;39.55;21.10;;;2.20;99.90;;;;;;5071559;28;20025;-48
2021/12/06 08:47:28;;;;;;;46.30;22.45;;;2.10;99.90;;;;;;5070881;28;20029;-48
2021/12/06 08:49:53;;;;;;;38.08;20.48;;;2.10;99.90;;;;;;5069504;28;20031;-48
2021/12/06 08:52:19;;;;;;;41.50;20.95;;;2.20;99.90;;;;;;5081936;28;20039;-50
2021/12/06 08:54:45;;;;;;;46.35;20.73;;;2.20;99.90;;;;;;5085599;28;20605;-48
2021/12/06 08:57:11;;;;;;;48.00;24.23;;;2.20;99.90;;;;;;5070991;28;20071;-48
2021/12/06 08:59:37;;;;;;;39.60;22.40;;;2.20;99.90;;;;;;5071332;28;20065;-48
2021/12/06 09:02:04;;;;;;;40.97;23.50;;;2.20;99.90;;;;;;5071185;28;20408;-51
2021/12/06 09:04:34;;;;;;;39.28;22.65;;;2.20;99.90;;;;;;5071020;28;20024;-49
2021/12/06 09:07:00;;;;;;;43.90;22.27;;;2.20;99.90;;;;;;5094043;28;20012;-49
2021/12/06 09:09:29;;;;;;;42.65;22.23;;;2.20;99.90;;;;;;5086243;28;20478;-49
2021/12/06 09:11:57;;;;;;;41.55;23.98;;;2.20;99.90;;;;;;5079311;28;20478;-48
2021/12/06 09:14:23;;;;;;;41.47;23.23;;;2.10;99.90;;;;;;5091127;28;20531;-50
2021/12/06 09:16:49;;;;;;;42.97;23.67;;;2.10;99.90;;;;;;5091710;28;20028;-50
2021/12/06 09:19:16;;;;;;;46.40;23.67;;;2.10;99.90;;;;;;5090868;28;20036;-49
2021/12/06 09:21:43;;;;;;;41.45;22.92;;;2.10;99.90;;;;;;5091847;28;20077;-50
2021/12/06 09:24:16;;;;;;;44.03;22.90;;;2.10;99.90;;;;;;5093360;28;20024;-49
2021/12/06 09:26:42;;;;;;;42.78;23.20;;;2.10;99.90;;;;;;5091349;28;20470;-49
2021/12/06 09:29:08;;;;;;;41.28;22.13;;;2.10;99.90;;;;;;5089632;28;20044;-50
2021/12/06 09:31:34;;;;;;;44.20;23.15;;;2.10;99.90;;;;;;5101612;28;20027;-49
2021/12/06 09:34:00;;;;;;;40.58;21.60;;;2.10;99.90;;;;;;5110004;28;20032;-48
2021/12/06 09:36:26;;;;;;;43.83;23.70;;;2.10;99.90;;;;;;5104033;28;20035;-49
2021/12/06 09:38:52;;;;;;;44.90;22.58;;;2.10;99.90;;;;;;5101035;28;20027;-48
2021/12/06 09:41:23;;;;;;;38.22;21.42;;;2.10;99.90;;;;;;5074306;28;20048;-51
2021/12/06 09:43:50;;;;;;;;;;;2.10;99.90;;;;;;5070170;28;20027;-48
2021/12/06 09:46:17;;;;;;;48.55;23.48;;;2.20;99.90;;;;;;5070500;28;19913;-48
2021/12/06 09:48:45;;;;;;;37.75;21.23;;;2.10;99.90;;;;;;5070458;28;20024;-48
2021/12/06 09:51:17;;;;;;;43.83;22.05;;;2.10;99.90;;;;;;5075904;28;20056;-50
2021/12/06 09:53:44;;;;;;;45.10;22.60;;;2.10;99.90;;;;;;5090589;28;20028;-48
2021/12/06 09:56:16;;;;;;;41.60;21.80;;;2.20;99.90;;;;;;5090840;28;20114;-49
2021/12/06 09:58:42;;;;;;;49.40;25.70;;;2.20;99.90;;;;;;5085663;28;20103;-50
2021/12/06 10:01:21;;;;;;;47.00;23.58;;;2.20;99.90;;;;;;5071140;28;20060;-50
2021/12/06 10:03:48;;;;;;;49.75;23.58;;;2.20;99.90;;;;;;5076433;28;20040;-48
2021/12/06 10:06:16;;;;;;;39.53;21.67;;;2.30;99.90;;;;;;5093058;28;20110;-48
2021/12/06 10:08:44;;;;;;;42.25;22.15;;;2.30;99.90;;;;;;5105582;28;20492;-48
2021/12/06 10:11:11;;;;;;;38.17;21.85;;;2.30;99.90;;;;;;5111703;28;20119;-48
2021/12/06 10:13:39;;;;;;;38.65;21.35;;;2.20;99.90;;;;;;5094713;28;20028;-49
2021/12/06 10:16:05;;;;;;;41.22;21.92;;;2.30;99.90;;;;;;5094371;28;20047;-49
2021/12/06 10:18:31;;;;;;;40.10;22.35;;;2.30;99.90;;;;;;5093137;28;20028;-48
2021/12/06 10:20:57;;;;;;;43.35;22.25;;;2.30;99.90;;;;;;5094102;28;20081;-51
2021/12/06 10:23:23;;;;;;;40.42;21.13;;;2.40;99.90;;;;;;5093903;28;20438;-48
2021/12/06 10:25:53;;;;;;;36.67;19.38;;;2.70;99.90;;;;;;5083888;28;20048;-50
2021/12/06 10:28:23;;;;;;;34.33;20.20;;;2.80;99.90;;;;;;5073500;28;20063;-49
2021/12/06 10:30:55;;;;;;;37.47;19.70;;;2.80;99.90;;;;;;5088653;28;20024;-49
2021/12/06 10:33:25;;;;;;;33.38;19.23;;;3.00;99.90;;;;;;5073877;28;20073;-48
2021/12/06 10:35:54;;;;;;;31.02;17.85;;;3.10;99.90;;;;;;5073911;28;20032;-50
2021/12/06 10:38:49;;;;;;;30.20;17.30;;;3.20;99.90;;;;;;5101699;28;20043;-48
2021/12/06 10:41:17;;;;;;;36.05;18.20;;;3.20;99.90;;;;;;5072266;28;20036;-49
2021/12/06 10:43:57;;;;;;;35.10;17.15;;;3.30;99.90;;;;;;5077028;28;20016;-48
2021/12/06 10:46:23;;;;;;;26.77;16.75;;;4.00;99.90;;;;;;5093311;28;20424;-48
2021/12/06 10:48:53;;;;;;;29.63;16.85;;;4.30;99.90;;;;;;5092074;28;20016;-50
2021/12/06 10:51:20;;;;;;;29.10;17.85;;;4.50;99.90;;;;;;5093121;28;20473;-48
2021/12/06 10:54:04;;;;;;;27.30;16.42;;;4.20;99.90;;;;;;5093491;28;20032;-50
2021/12/06 10:56:44;;;;;;;29.30;17.17;;;4.50;99.90;;;;;;5081989;28;20028;-48
2021/12/06 10:59:37;;;;;;;31.92;18.40;;;5.30;99.90;;;;;;5080865;28;20659;-49
2021/12/06 11:02:06;;;;;;;26.65;15.40;;;6.20;99.90;;;;;;5092383;28;20040;-50
2021/12/06 11:04:32;;;;;;;24.13;15.40;;;7.50;99.90;;;;;;5091362;28;20028;-49
2021/12/06 11:07:05;;;;;;;29.40;17.40;;;8.60;99.90;;;;;;5100737;28;20621;-50
2021/12/06 11:09:32;;;;;;;25.40;16.40;;;9.00;97.90;;;;;;5092678;28;20410;-51
2021/12/06 11:12:00;;;;;;;25.55;17.10;;;9.00;97.70;;;;;;5092931;28;20103;-51
2021/12/06 11:14:35;;;;;;;26.98;18.38;;;8.40;96.90;;;;;;5091413;28;20036;-51
2021/12/06 11:17:08;;;;;;;28.80;17.35;;;7.80;98.10;;;;;;5101805;28;20106;-51
2021/12/06 11:19:35;;;;;;;27.15;18.10;;;7.40;99.20;;;;;;5091731;28;20055;-49
2021/12/06 11:22:05;;;;;;;25.95;18.75;;;7.00;99.90;;;;;;5081454;28;20107;-48
2021/12/06 11:24:39;;;;;;;33.25;20.92;;;6.60;99.40;;;;;;5093089;28;20107;-48
2021/12/06 11:27:17;;;;;;;31.15;20.35;;;6.30;99.90;;;;;;5071899;28;20454;-49
2021/12/06 11:29:46;;;;;;;31.23;19.05;;;5.90;99.90;;;;;;5073017;28;20035;-47
2021/12/06 11:32:20;;;;;;;29.52;19.23;;;5.50;99.90;;;;;;5080896;28;20481;-49
2021/12/06 11:34:49;;;;;;;30.45;19.70;;;5.10;99.90;;;;;;5104897;28;20637;-48
2021/12/06 11:37:24;;;;;;;31.13;19.92;;;4.60;99.90;;;;;;5097230;28;20035;-48
2021/12/06 11:40:17;;;;;;;33.60;20.20;;;4.30;99.90;;;;;;5086891;28;20021;-50
2021/12/06 11:43:00;;;;;;;32.85;18.23;;;4.20;99.90;;;;;;5089041;28;20676;-48
2021/12/06 11:45:56;;;;;;;31.85;17.70;;;4.20;99.90;;;;;;5088557;28;20034;-49
2021/12/06 11:48:28;;;;;;;36.30;20.15;;;4.20;99.90;;;;;;5097583;28;20021;-50
2021/12/06 11:51:07;;;;;;;32.67;20.30;;;4.40;99.90;;;;;;5092246;28;20032;-48
2021/12/06 11:53:44;;;;;;;40.03;21.35;;;4.60;99.90;;;;;;5100984;28;20102;-49
2021/12/06 11:56:14;;;;;;;36.60;19.77;;;4.70;99.90;;;;;;5099291;28;20027;-51
2021/12/06 11:58:48;;;;;;;34.13;19.90;;;4.90;99.90;;;;;;5091963;28;20116;-49
2021/12/06 12:01:26;;;;;;;36.78;22.05;;;4.80;99.90;;;;;;5112095;28;20057;-50
2021/12/06 12:03:57;;;;;;;36.75;20.65;;;4.60;99.90;;;;;;5112977;28;20103;-47
2021/12/06 12:06:36;;;;;;;34.17;20.73;;;4.40;99.90;;;;;;5102892;28;20016;-50
2021/12/06 12:09:03;;;;;;;34.85;19.38;;;4.50;99.90;;;;;;5093553;28;20078;-48
2021/12/06 12:11:29;;;;;;;36.08;21.48;;;4.50;99.90;;;;;;5092092;28;20048;-48
2021/12/06 12:13:56;;;;;;;38.90;22.30;;;4.60;99.90;;;;;;5092070;28;20078;-48
2021/12/06 12:16:22;;;;;;;36.90;21.80;;;4.60;99.90;;;;;;5077173;28;20028;-48
2021/12/06 12:18:48;;;;;;;33.58;19.73;;;4.50;99.90;;;;;;5071889;28;20039;-48
2021/12/06 12:21:15;;;;;;;40.22;21.48;;;4.40;99.90;;;;;;5080255;28;20024;-50
2021/12/06 12:23:42;;;;;;;36.38;20.42;;;4.10;99.90;;;;;;5092035;28;20067;-47
2021/12/06 12:26:13;;;;;;;34.22;21.17;;;3.90;99.90;;;;;;5074918;28;20024;-50
2021/12/06 12:28:57;;;;;;;37.83;19.40;;;3.70;99.90;;;;;;5071570;28;20099;-50
2021/12/06 12:31:23;;;;;;;33.97;18.83;;;3.70;99.90;;;;;;5077852;28;20114;-47
2021/12/06 12:33:50;;;;;;;40.53;18.58;;;3.70;99.90;;;;;;5091961;28;20107;-50
2021/12/06 12:36:21;;;;;;;29.63;18.60;;;3.50;99.90;;;;;;5094702;28;20027;-48
2021/12/06 12:38:50;;;;;;;33.65;19.38;;;3.40;99.90;;;;;;5097561;28;20023;-48
2021/12/06 12:41:18;;;;;;;32.53;19.20;;;3.30;99.90;;;;;;5086976;28;20078;-50
2021/12/06 12:43:47;;;;;;;32.15;19.23;;;3.30;99.90;;;;;;5083598;28;20028;-49
2021/12/06 12:46:20;;;;;;;40.40;21.25;;;3.30;99.90;;;;;;5101836;28;20097;-47
2021/12/06 12:48:51;;;;;;;39.08;22.17;;;2.80;99.90;;;;;;5088931;28;20473;-48
2021/12/06 12:51:31;;;;;;;39.95;22.88;;;2.70;99.90;;;;;;5088849;28;20043;-50
2021/12/06 12:54:02;;;;;;;46.65;24.48;;;2.40;99.90;;;;;;5070963;28;20028;-47
2021/12/06 12:56:56;;;;;;;39.97;23.85;;;2.30;99.90;;;;;;5071127;28;20108;-47
2021/12/06 12:59:30;;;;;;;44.55;25.13;;;2.10;99.90;;;;;;5079853;28;20036;-47